sensor_id;sensor_type;location;lat;lon;timestamp;pressure;altitude;pressure_sealevel;temperature;humidity
3544;BME280;1786;52.870;9.578;2022-08-23T00:01:58;100677.16;;;25.76;53.78
3544;BME280;1786;52.870;9.578;2022-08-23T00:04:30;100675.94;;;25.79;53.62
3544;BME280;1786;52.870;9.578;2022-08-23T00:07:02;100679.47;;;25.79;53.19
3544;BME280;1786;52.870;9.578;2022-08-23T00:09:29;100677.53;;;25.95;53.39
3544;BME280;1786;52.870;9.578;2022-08-23T00:12:10;100670.50;;;25.57;53.61
3544;BME280;1786;52.870;9.578;2022-08-23T00:14:40;100677.94;;;25.92;53.14
3544;BME280;1786;52.870;9.578;2022-08-23T00:17:29;100674.69;;;25.60;53.35
3544;BME280;1786;52.870;9.578;2022-08-23T00:20:10;100672.50;;;25.70;53.29
3544;BME280;1786;52.870;9.578;2022-08-23T00:22:38;100676.09;;;25.77;53.65
3544;BME280;1786;52.870;9.578;2022-08-23T00:25:07;100672.47;;;25.85;53.19
3544;BME280;1786;52.870;9.578;2022-08-23T00:27:34;100679.88;;;25.76;53.65
3544;BME280;1786;52.870;9.578;2022-08-23T00:30:04;100674.44;;;25.76;53.66
3544;BME280;1786;52.870;9.578;2022-08-23T00:32:33;100675.88;;;25.51;53.83
3544;BME280;1786;52.870;9.578;2022-08-23T00:35:02;100674.44;;;25.55;54.07
3544;BME280;1786;52.870;9.578;2022-08-23T00:37:30;100684.03;;;26.00;53.14
3544;BME280;1786;52.870;9.578;2022-08-23T00:39:58;100682.44;;;25.84;53.21
3544;BME280;1786;52.870;9.578;2022-08-23T00:42:54;100687.53;;;25.94;53.00
3544;BME280;1786;52.870;9.578;2022-08-23T00:45:47;100679.16;;;25.89;53.42
3544;BME280;1786;52.870;9.578;2022-08-23T00:48:37;100679.28;;;25.81;53.55
3544;BME280;1786;52.870;9.578;2022-08-23T00:51:18;100682.47;;;26.12;52.79
3544;BME280;1786;52.870;9.578;2022-08-23T00:53:52;100682.16;;;25.79;53.58
3544;BME280;1786;52.870;9.578;2022-08-23T00:56:23;100678.63;;;25.79;53.67
3544;BME280;1786;52.870;9.578;2022-08-23T00:58:53;100682.72;;;25.68;53.55
3544;BME280;1786;52.870;9.578;2022-08-23T01:01:22;100679.59;;;25.71;53.37
3544;BME280;1786;52.870;9.578;2022-08-23T01:03:53;100670.53;;;25.36;54.10
3544;BME280;1786;52.870;9.578;2022-08-23T01:09:17;100669.56;;;25.43;54.23
3544;BME280;1786;52.870;9.578;2022-08-23T01:11:51;100670.47;;;25.51;53.82
3544;BME280;1786;52.870;9.578;2022-08-23T01:14:33;100672.97;;;25.52;54.08
3544;BME280;1786;52.870;9.578;2022-08-23T01:17:07;100670.56;;;25.42;54.28
3544;BME280;1786;52.870;9.578;2022-08-23T01:19:39;100670.72;;;25.56;53.65
3544;BME280;1786;52.870;9.578;2022-08-23T01:22:14;100675.03;;;25.72;53.42
3544;BME280;1786;52.870;9.578;2022-08-23T01:24:43;100676.13;;;25.56;53.90
3544;BME280;1786;52.870;9.578;2022-08-23T01:27:31;100676.50;;;25.74;53.38
3544;BME280;1786;52.870;9.578;2022-08-23T01:29:58;100675.34;;;25.40;54.08
3544;BME280;1786;52.870;9.578;2022-08-23T01:32:25;100676.09;;;25.77;53.83
3544;BME280;1786;52.870;9.578;2022-08-23T01:34:52;100680.63;;;25.70;53.82
3544;BME280;1786;52.870;9.578;2022-08-23T01:37:20;100680.63;;;25.70;53.60
3544;BME280;1786;52.870;9.578;2022-08-23T01:39:48;100675.47;;;25.75;53.88
3544;BME280;1786;52.870;9.578;2022-08-23T01:42:15;100677.16;;;25.76;53.76
3544;BME280;1786;52.870;9.578;2022-08-23T01:44:42;100683.69;;;26.10;53.16
3544;BME280;1786;52.870;9.578;2022-08-23T01:47:08;100680.41;;;25.86;53.56
3544;BME280;1786;52.870;9.578;2022-08-23T01:49:35;100677.78;;;25.57;54.10
3544;BME280;1786;52.870;9.578;2022-08-23T01:52:03;100670.97;;;25.39;53.90
3544;BME280;1786;52.870;9.578;2022-08-23T01:54:29;100680.00;;;25.46;54.25
3544;BME280;1786;52.870;9.578;2022-08-23T01:56:57;100675.97;;;25.42;54.40
3544;BME280;1786;52.870;9.578;2022-08-23T01:59:24;100680.63;;;25.70;53.68
3544;BME280;1786;52.870;9.578;2022-08-23T02:01:53;100680.66;;;25.92;53.27
3544;BME280;1786;52.870;9.578;2022-08-23T02:04:20;100689.28;;;25.59;53.92
3544;BME280;1786;52.870;9.578;2022-08-23T02:06:47;100693.06;;;25.43;54.55
3544;BME280;1786;52.870;9.578;2022-08-23T02:09:18;100679.53;;;25.43;54.31
3544;BME280;1786;52.870;9.578;2022-08-23T02:11:46;100682.94;;;25.52;54.24
3544;BME280;1786;52.870;9.578;2022-08-23T02:14:20;100688.09;;;25.25;54.66
3544;BME280;1786;52.870;9.578;2022-08-23T02:16:56;100690.31;;;25.07;55.42
3544;BME280;1786;52.870;9.578;2022-08-23T02:19:36;100692.38;;;25.04;55.29
3544;BME280;1786;52.870;9.578;2022-08-23T02:22:05;100691.38;;;25.05;55.36
3544;BME280;1786;52.870;9.578;2022-08-23T02:24:34;100697.03;;;25.11;55.73
3544;BME280;1786;52.870;9.578;2022-08-23T02:27:03;100687.44;;;25.08;55.10
3544;BME280;1786;52.870;9.578;2022-08-23T02:29:35;100693.25;;;24.90;55.77
3544;BME280;1786;52.870;9.578;2022-08-23T02:32:07;100701.13;;;25.07;55.30
3544;BME280;1786;52.870;9.578;2022-08-23T02:34:36;100692.97;;;25.00;55.38
3544;BME280;1786;52.870;9.578;2022-08-23T02:37:04;100695.56;;;25.44;54.85
3544;BME280;1786;52.870;9.578;2022-08-23T02:39:31;100702.25;;;25.27;55.22
3544;BME280;1786;52.870;9.578;2022-08-23T02:41:58;100705.81;;;25.13;55.18
3544;BME280;1786;52.870;9.578;2022-08-23T02:44:29;100704.06;;;25.05;55.88
3544;BME280;1786;52.870;9.578;2022-08-23T02:46:57;100703.53;;;25.31;54.92
3544;BME280;1786;52.870;9.578;2022-08-23T02:49:24;100702.63;;;25.24;54.97
3544;BME280;1786;52.870;9.578;2022-08-23T02:51:52;100709.41;;;25.35;55.06
3544;BME280;1786;52.870;9.578;2022-08-23T02:54:19;100707.09;;;25.32;55.14
3544;BME280;1786;52.870;9.578;2022-08-23T02:56:46;100702.38;;;25.19;54.89
3544;BME280;1786;52.870;9.578;2022-08-23T02:59:13;100713.59;;;25.37;54.72
3544;BME280;1786;52.870;9.578;2022-08-23T03:01:40;100708.19;;;25.37;55.26
3544;BME280;1786;52.870;9.578;2022-08-23T03:04:18;100699.91;;;25.60;54.33
3544;BME280;1786;52.870;9.578;2022-08-23T03:06:45;100702.53;;;25.17;55.31
3544;BME280;1786;52.870;9.578;2022-08-23T03:09:12;100711.22;;;25.28;54.96
3544;BME280;1786;52.870;9.578;2022-08-23T03:11:43;100714.09;;;25.11;55.64
3544;BME280;1786;52.870;9.578;2022-08-23T03:14:12;100710.69;;;25.02;56.04
3544;BME280;1786;52.870;9.578;2022-08-23T03:16:40;100709.53;;;25.12;55.42
3544;BME280;1786;52.870;9.578;2022-08-23T03:19:08;100706.56;;;25.07;55.96
3544;BME280;1786;52.870;9.578;2022-08-23T03:21:35;100711.69;;;24.87;55.85
3544;BME280;1786;52.870;9.578;2022-08-23T03:24:02;100711.16;;;24.61;56.91
3544;BME280;1786;52.870;9.578;2022-08-23T03:26:41;100709.94;;;24.49;56.86
3544;BME280;1786;52.870;9.578;2022-08-23T03:29:08;100712.28;;;24.67;56.71
3544;BME280;1786;52.870;9.578;2022-08-23T03:31:53;100722.91;;;24.69;57.09
3544;BME280;1786;52.870;9.578;2022-08-23T03:34:20;100723.09;;;24.52;57.02
3544;BME280;1786;52.870;9.578;2022-08-23T03:36:47;100725.03;;;24.58;57.23
3544;BME280;1786;52.870;9.578;2022-08-23T03:39:14;100727.69;;;24.44;57.28
3544;BME280;1786;52.870;9.578;2022-08-23T03:41:41;100724.75;;;24.15;58.01
3544;BME280;1786;52.870;9.578;2022-08-23T03:44:08;100725.84;;;24.06;58.23
3544;BME280;1786;52.870;9.578;2022-08-23T03:46:39;100717.44;;;24.01;58.53
3544;BME280;1786;52.870;9.578;2022-08-23T03:49:06;100719.94;;;23.88;58.89
3544;BME280;1786;52.870;9.578;2022-08-23T03:51:46;100711.28;;;23.92;58.69
3544;BME280;1786;52.870;9.578;2022-08-23T03:54:13;100716.81;;;24.14;58.30
3544;BME280;1786;52.870;9.578;2022-08-23T03:56:51;100722.06;;;24.15;57.81
3544;BME280;1786;52.870;9.578;2022-08-23T03:59:18;100718.97;;;24.18;57.95
3544;BME280;1786;52.870;9.578;2022-08-23T04:01:45;100722.84;;;24.01;58.29
3544;BME280;1786;52.870;9.578;2022-08-23T04:04:12;100729.94;;;24.02;58.20
3544;BME280;1786;52.870;9.578;2022-08-23T04:06:51;100723.22;;;23.98;58.40
3544;BME280;1786;52.870;9.578;2022-08-23T04:09:18;100728.78;;;24.19;58.01
3544;BME280;1786;52.870;9.578;2022-08-23T04:11:46;100729.16;;;23.93;58.89
3544;BME280;1786;52.870;9.578;2022-08-23T04:14:13;100734.63;;;23.85;59.05
3544;BME280;1786;52.870;9.578;2022-08-23T04:16:40;100737.75;;;23.97;58.93
3544;BME280;1786;52.870;9.578;2022-08-23T04:19:11;100736.25;;;23.63;59.20
3544;BME280;1786;52.870;9.578;2022-08-23T04:21:49;100734.97;;;23.51;59.77
3544;BME280;1786;52.870;9.578;2022-08-23T04:24:18;100738.53;;;23.83;59.47
3544;BME280;1786;52.870;9.578;2022-08-23T04:26:45;100739.66;;;23.88;59.00
3544;BME280;1786;52.870;9.578;2022-08-23T04:29:16;100742.41;;;23.80;59.28
3544;BME280;1786;52.870;9.578;2022-08-23T04:32:01;100735.22;;;23.72;59.26
3544;BME280;1786;52.870;9.578;2022-08-23T04:34:34;100743.94;;;23.51;59.95
3544;BME280;1786;52.870;9.578;2022-08-23T04:37:01;100744.03;;;23.58;59.53
3544;BME280;1786;52.870;9.578;2022-08-23T04:39:28;100751.31;;;23.58;59.71
3544;BME280;1786;52.870;9.578;2022-08-23T04:41:56;100751.25;;;23.66;59.67
3544;BME280;1786;52.870;9.578;2022-08-23T04:44:43;100755.78;;;23.73;59.51
3544;BME280;1786;52.870;9.578;2022-08-23T04:47:10;100747.81;;;23.80;59.52
3544;BME280;1786;52.870;9.578;2022-08-23T04:49:37;100750.34;;;23.82;58.95
3544;BME280;1786;52.870;9.578;2022-08-23T04:52:04;100756.97;;;23.40;60.23
3544;BME280;1786;52.870;9.578;2022-08-23T04:54:31;100763.88;;;23.73;59.76
3544;BME280;1786;52.870;9.578;2022-08-23T04:57:19;100757.72;;;23.57;59.81
3544;BME280;1786;52.870;9.578;2022-08-23T04:59:47;100760.91;;;23.60;60.00
3544;BME280;1786;52.870;9.578;2022-08-23T05:02:15;100768.09;;;23.68;59.96
3544;BME280;1786;52.870;9.578;2022-08-23T05:04:41;100773.84;;;23.73;59.67
3544;BME280;1786;52.870;9.578;2022-08-23T05:07:08;100768.09;;;23.99;59.05
3544;BME280;1786;52.870;9.578;2022-08-23T05:09:35;100773.53;;;24.37;58.02
3544;BME280;1786;52.870;9.578;2022-08-23T05:12:02;100775.38;;;25.19;56.19
3544;BME280;1786;52.870;9.578;2022-08-23T05:14:30;100784.00;;;26.45;53.58
3544;BME280;1786;52.870;9.578;2022-08-23T05:16:57;100786.16;;;27.60;51.07
3544;BME280;1786;52.870;9.578;2022-08-23T05:19:25;100796.34;;;28.53;48.78
3544;BME280;1786;52.870;9.578;2022-08-23T05:21:52;100804.19;;;29.21;48.01
3544;BME280;1786;52.870;9.578;2022-08-23T05:24:28;100802.88;;;29.37;48.04
3544;BME280;1786;52.870;9.578;2022-08-23T05:26:55;100805.75;;;29.94;46.89
3544;BME280;1786;52.870;9.578;2022-08-23T05:29:22;100800.75;;;30.48;46.09
3544;BME280;1786;52.870;9.578;2022-08-23T05:31:49;100807.91;;;30.92;45.14
3544;BME280;1786;52.870;9.578;2022-08-23T05:34:19;100808.88;;;31.53;44.49
3544;BME280;1786;52.870;9.578;2022-08-23T05:36:54;100806.00;;;32.20;43.35
3544;BME280;1786;52.870;9.578;2022-08-23T05:39:27;100811.41;;;33.21;41.99
3544;BME280;1786;52.870;9.578;2022-08-23T05:42:06;100819.28;;;33.87;40.62
3544;BME280;1786;52.870;9.578;2022-08-23T05:44:34;100826.44;;;34.33;40.39
3544;BME280;1786;52.870;9.578;2022-08-23T05:47:07;100838.81;;;34.19;40.31
3544;BME280;1786;52.870;9.578;2022-08-23T05:49:45;100833.16;;;34.09;39.81
3544;BME280;1786;52.870;9.578;2022-08-23T05:52:13;100818.81;;;32.08;42.39
3544;BME280;1786;52.870;9.578;2022-08-23T05:54:41;100813.03;;;30.57;44.78
3544;BME280;1786;52.870;9.578;2022-08-23T05:57:27;100810.06;;;29.18;47.73
3544;BME280;1786;52.870;9.578;2022-08-23T05:59:54;100801.56;;;28.55;48.42
3544;BME280;1786;52.870;9.578;2022-08-23T06:02:21;100801.59;;;28.48;49.05
3544;BME280;1786;52.870;9.578;2022-08-23T06:04:48;100807.94;;;27.80;50.54
3544;BME280;1786;52.870;9.578;2022-08-23T06:07:18;100804.81;;;27.29;51.96
3544;BME280;1786;52.870;9.578;2022-08-23T06:09:47;100801.38;;;27.13;52.20
3544;BME280;1786;52.870;9.578;2022-08-23T06:12:14;100809.84;;;27.32;51.84
3544;BME280;1786;52.870;9.578;2022-08-23T06:14:41;100805.22;;;27.26;51.79
3544;BME280;1786;52.870;9.578;2022-08-23T06:17:08;100803.84;;;27.43;52.13
3544;BME280;1786;52.870;9.578;2022-08-23T06:19:35;100816.19;;;27.52;51.51
3544;BME280;1786;52.870;9.578;2022-08-23T06:22:16;100805.44;;;27.31;52.14
3544;BME280;1786;52.870;9.578;2022-08-23T06:24:43;100807.84;;;26.77;52.77
3544;BME280;1786;52.870;9.578;2022-08-23T06:27:12;100803.00;;;27.08;52.35
3544;BME280;1786;52.870;9.578;2022-08-23T06:29:40;100799.28;;;26.81;53.35
3544;BME280;1786;52.870;9.578;2022-08-23T06:32:25;100806.84;;;26.57;53.62
3544;BME280;1786;52.870;9.578;2022-08-23T06:35:24;100798.63;;;26.72;53.46
3544;BME280;1786;52.870;9.578;2022-08-23T06:38:42;100806.31;;;26.96;54.08
3544;BME280;1786;52.870;9.578;2022-08-23T06:41:30;100821.00;;;28.78;50.09
3544;BME280;1786;52.870;9.578;2022-08-23T06:44:06;100829.72;;;31.11;46.17
3544;BME280;1786;52.870;9.578;2022-08-23T06:46:54;100832.91;;;32.35;43.41
3544;BME280;1786;52.870;9.578;2022-08-23T06:49:23;100840.50;;;32.21;44.23
3544;BME280;1786;52.870;9.578;2022-08-23T06:51:53;100831.88;;;31.45;44.90
3544;BME280;1786;52.870;9.578;2022-08-23T06:54:32;100839.03;;;32.07;44.04
3544;BME280;1786;52.870;9.578;2022-08-23T06:57:28;100848.56;;;33.98;41.13
3544;BME280;1786;52.870;9.578;2022-08-23T07:00:13;100852.00;;;35.23;39.98
3544;BME280;1786;52.870;9.578;2022-08-23T07:02:58;100854.53;;;36.01;38.03
3544;BME280;1786;52.870;9.578;2022-08-23T07:05:44;100861.44;;;35.77;37.91
3544;BME280;1786;52.870;9.578;2022-08-23T07:08:18;100852.16;;;35.83;38.20
3544;BME280;1786;52.870;9.578;2022-08-23T07:10:46;100855.81;;;34.83;39.24
3544;BME280;1786;52.870;9.578;2022-08-23T07:13:13;100858.38;;;34.56;39.31
3544;BME280;1786;52.870;9.578;2022-08-23T07:15:44;100850.81;;;34.80;39.06
3544;BME280;1786;52.870;9.578;2022-08-23T07:18:16;100857.53;;;35.50;37.60
3544;BME280;1786;52.870;9.578;2022-08-23T07:20:43;100855.81;;;35.44;38.19
3544;BME280;1786;52.870;9.578;2022-08-23T07:23:10;100858.44;;;35.56;37.20
3544;BME280;1786;52.870;9.578;2022-08-23T07:25:39;100866.22;;;35.86;37.07
3544;BME280;1786;52.870;9.578;2022-08-23T07:28:08;100867.78;;;36.64;36.41
3544;BME280;1786;52.870;9.578;2022-08-23T07:30:39;100877.38;;;36.56;36.56
3544;BME280;1786;52.870;9.578;2022-08-23T07:33:11;100871.38;;;37.54;35.36
3544;BME280;1786;52.870;9.578;2022-08-23T07:35:57;100874.44;;;37.63;35.06
3544;BME280;1786;52.870;9.578;2022-08-23T07:38:25;100875.09;;;37.22;35.27
3544;BME280;1786;52.870;9.578;2022-08-23T07:40:57;100875.91;;;37.23;34.92
3544;BME280;1786;52.870;9.578;2022-08-23T07:43:24;100878.88;;;37.74;34.94
3544;BME280;1786;52.870;9.578;2022-08-23T07:45:52;100883.34;;;37.91;34.62
3544;BME280;1786;52.870;9.578;2022-08-23T07:48:19;100878.97;;;38.20;34.29
3544;BME280;1786;52.870;9.578;2022-08-23T07:51:15;100886.38;;;37.94;34.39
3544;BME280;1786;52.870;9.578;2022-08-23T07:53:42;100879.69;;;37.12;35.10
3544;BME280;1786;52.870;9.578;2022-08-23T07:56:16;100870.00;;;37.04;35.34
3544;BME280;1786;52.870;9.578;2022-08-23T07:59:05;100869.22;;;37.09;35.22
3544;BME280;1786;52.870;9.578;2022-08-23T08:01:58;100877.56;;;37.29;35.07
3544;BME280;1786;52.870;9.578;2022-08-23T08:04:27;100880.31;;;37.24;34.91
3544;BME280;1786;52.870;9.578;2022-08-23T08:06:55;100877.91;;;36.26;35.69
3544;BME280;1786;52.870;9.578;2022-08-23T08:09:44;100870.06;;;37.14;35.46
3544;BME280;1786;52.870;9.578;2022-08-23T08:12:13;100875.47;;;36.61;35.77
3544;BME280;1786;52.870;9.578;2022-08-23T08:14:41;100871.69;;;37.58;34.41
3544;BME280;1786;52.870;9.578;2022-08-23T08:17:10;100875.72;;;36.92;34.77
3544;BME280;1786;52.870;9.578;2022-08-23T08:19:56;100861.97;;;36.01;35.81
3544;BME280;1786;52.870;9.578;2022-08-23T08:22:42;100869.31;;;36.17;35.57
3544;BME280;1786;52.870;9.578;2022-08-23T08:25:29;100869.38;;;36.00;35.69
3544;BME280;1786;52.870;9.578;2022-08-23T08:28:01;100875.47;;;36.61;35.30
3544;BME280;1786;52.870;9.578;2022-08-23T08:30:29;100869.31;;;37.29;34.68
3544;BME280;1786;52.870;9.578;2022-08-23T08:32:56;100876.09;;;37.64;34.19
3544;BME280;1786;52.870;9.578;2022-08-23T08:35:23;100879.41;;;37.66;33.39
3544;BME280;1786;52.870;9.578;2022-08-23T08:37:51;100878.63;;;37.76;32.93
3544;BME280;1786;52.870;9.578;2022-08-23T08:40:26;100869.44;;;37.02;33.65
3544;BME280;1786;52.870;9.578;2022-08-23T08:43:15;100869.72;;;36.63;33.87
3544;BME280;1786;52.870;9.578;2022-08-23T08:45:52;100868.63;;;36.32;34.31
3544;BME280;1786;52.870;9.578;2022-08-23T08:48:26;100878.38;;;35.68;34.90
3544;BME280;1786;52.870;9.578;2022-08-23T08:51:00;100865.94;;;35.39;35.10
3544;BME280;1786;52.870;9.578;2022-08-23T08:53:43;100867.13;;;35.48;35.42
3544;BME280;1786;52.870;9.578;2022-08-23T08:56:26;100885.94;;;34.78;35.62
3544;BME280;1786;52.870;9.578;2022-08-23T08:59:14;100868.94;;;34.47;36.43
3544;BME280;1786;52.870;9.578;2022-08-23T09:01:46;100869.78;;;34.65;36.69
3544;BME280;1786;52.870;9.578;2022-08-23T09:04:19;100868.63;;;34.78;35.90
3544;BME280;1786;52.870;9.578;2022-08-23T09:12:38;100872.47;;;33.86;36.91
3544;BME280;1786;52.870;9.578;2022-08-23T09:15:16;100863.44;;;33.73;36.89
3544;BME280;1786;52.870;9.578;2022-08-23T09:17:56;100867.91;;;33.63;37.34
3544;BME280;1786;52.870;9.578;2022-08-23T09:20:26;100862.81;;;33.31;37.42
3544;BME280;1786;52.870;9.578;2022-08-23T09:23:07;100856.19;;;33.27;36.37
3544;BME280;1786;52.870;9.578;2022-08-23T09:25:36;100857.59;;;33.29;36.42
3544;BME280;1786;52.870;9.578;2022-08-23T09:28:13;100855.59;;;33.13;37.63
3544;BME280;1786;52.870;9.578;2022-08-23T09:30:53;100866.53;;;33.25;37.41
3544;BME280;1786;52.870;9.578;2022-08-23T09:33:37;100857.34;;;33.43;37.46
3544;BME280;1786;52.870;9.578;2022-08-23T09:36:17;100861.81;;;33.49;36.21
3544;BME280;1786;52.870;9.578;2022-08-23T09:41:24;100860.50;;;33.92;35.96
3544;BME280;1786;52.870;9.578;2022-08-23T09:43:55;100862.41;;;33.91;36.89
3544;BME280;1786;52.870;9.578;2022-08-23T09:46:28;100862.94;;;33.36;37.56
3544;BME280;1786;52.870;9.578;2022-08-23T09:48:57;100842.63;;;33.08;38.40
3544;BME280;1786;52.870;9.578;2022-08-23T09:51:35;100852.63;;;32.67;39.46
3544;BME280;1786;52.870;9.578;2022-08-23T09:54:09;100855.97;;;33.05;38.29
3544;BME280;1786;52.870;9.578;2022-08-23T09:56:40;100843.09;;;33.05;38.71
3544;BME280;1786;52.870;9.578;2022-08-23T09:59:46;100834.28;;;33.03;38.68
3544;BME280;1786;52.870;9.578;2022-08-23T10:02:31;100835.22;;;32.85;39.18
3544;BME280;1786;52.870;9.578;2022-08-23T10:07:43;100826.50;;;33.35;38.31
3544;BME280;1786;52.870;9.578;2022-08-23T10:10:27;100846.38;;;33.43;38.01
3544;BME280;1786;52.870;9.578;2022-08-23T10:12:59;100842.91;;;33.88;37.37
3544;BME280;1786;52.870;9.578;2022-08-23T10:15:47;100843.50;;;33.49;38.25
3544;BME280;1786;52.870;9.578;2022-08-23T10:21:10;100834.66;;;33.88;37.67
3544;BME280;1786;52.870;9.578;2022-08-23T10:24:01;100836.63;;;33.35;38.08
3544;BME280;1786;52.870;9.578;2022-08-23T10:26:35;100827.69;;;33.39;38.20
3544;BME280;1786;52.870;9.578;2022-08-23T10:29:13;100828.91;;;33.20;38.75
3544;BME280;1786;52.870;9.578;2022-08-23T10:32:20;100835.22;;;33.21;38.18
3544;BME280;1786;52.870;9.578;2022-08-23T10:35:03;100823.25;;;33.79;37.79
3544;BME280;1786;52.870;9.578;2022-08-23T10:37:44;100824.22;;;33.44;38.37
3544;BME280;1786;52.870;9.578;2022-08-23T10:40:33;100829.03;;;33.25;38.37
3544;BME280;1786;52.870;9.578;2022-08-23T10:46:00;100820.00;;;33.53;38.42
3544;BME280;1786;52.870;9.578;2022-08-23T10:48:58;100813.81;;;33.46;38.27
3544;BME280;1786;52.870;9.578;2022-08-23T10:51:29;100833.09;;;33.51;37.62
3544;BME280;1786;52.870;9.578;2022-08-23T10:54:16;100835.94;;;33.16;37.35
3544;BME280;1786;52.870;9.578;2022-08-23T10:56:55;100823.56;;;33.66;37.34
3544;BME280;1786;52.870;9.578;2022-08-23T10:59:24;100809.03;;;33.53;37.33
3544;BME280;1786;52.870;9.578;2022-08-23T11:02:53;100818.97;;;33.43;37.52
3544;BME280;1786;52.870;9.578;2022-08-23T11:08:06;100823.34;;;34.13;36.90
3544;BME280;1786;52.870;9.578;2022-08-23T11:15:44;100816.69;;;34.09;37.38
3544;BME280;1786;52.870;9.578;2022-08-23T11:21:05;100816.03;;;34.18;37.15
3544;BME280;1786;52.870;9.578;2022-08-23T11:23:52;100828.03;;;34.12;36.73
3544;BME280;1786;52.870;9.578;2022-08-23T11:28:50;100814.41;;;34.17;36.96
3544;BME280;1786;52.870;9.578;2022-08-23T11:31:38;100814.03;;;34.14;36.64
3544;BME280;1786;52.870;9.578;2022-08-23T11:34:21;100807.50;;;33.86;37.24
3544;BME280;1786;52.870;9.578;2022-08-23T11:42:47;100810.22;;;34.48;36.72
3544;BME280;1786;52.870;9.578;2022-08-23T11:45:29;100808.91;;;34.68;36.28
3544;BME280;1786;52.870;9.578;2022-08-23T11:53:35;100808.31;;;35.49;35.69
3544;BME280;1786;52.870;9.578;2022-08-23T11:56:15;100809.69;;;35.24;35.67
3544;BME280;1786;52.870;9.578;2022-08-23T11:59:21;100807.34;;;34.94;35.80
3544;BME280;1786;52.870;9.578;2022-08-23T12:01:51;100809.84;;;34.96;35.51
3544;BME280;1786;52.870;9.578;2022-08-23T12:04:33;100801.16;;;34.65;35.96
3544;BME280;1786;52.870;9.578;2022-08-23T12:07:04;100817.28;;;34.44;36.02
3544;BME280;1786;52.870;9.578;2022-08-23T12:22:51;100792.75;;;35.32;36.13
3544;BME280;1786;52.870;9.578;2022-08-23T12:25:21;100800.09;;;34.66;36.37
3544;BME280;1786;52.870;9.578;2022-08-23T12:27:51;100785.25;;;35.06;35.57
3544;BME280;1786;52.870;9.578;2022-08-23T12:30:24;100798.75;;;35.29;35.60
3544;BME280;1786;52.870;9.578;2022-08-23T12:36:49;100794.56;;;35.05;36.48
3544;BME280;1786;52.870;9.578;2022-08-23T12:39:31;100780.53;;;35.01;35.88
3544;BME280;1786;52.870;9.578;2022-08-23T12:42:03;100788.19;;;34.99;35.13
3544;BME280;1786;52.870;9.578;2022-08-23T12:44:32;100783.53;;;35.44;36.29
3544;BME280;1786;52.870;9.578;2022-08-23T12:47:15;100792.13;;;35.52;35.79
3544;BME280;1786;52.870;9.578;2022-08-23T12:49:57;100794.94;;;35.80;36.56
3544;BME280;1786;52.870;9.578;2022-08-23T12:52:27;100791.16;;;35.59;36.09
3544;BME280;1786;52.870;9.578;2022-08-23T12:54:54;100790.00;;;35.32;35.08
3544;BME280;1786;52.870;9.578;2022-08-23T12:57:30;100805.81;;;35.47;35.11
3544;BME280;1786;52.870;9.578;2022-08-23T13:03:15;100790.97;;;35.97;34.31
3544;BME280;1786;52.870;9.578;2022-08-23T13:05:55;100791.75;;;35.93;34.87
3544;BME280;1786;52.870;9.578;2022-08-23T13:08:38;100799.75;;;35.67;34.78
3544;BME280;1786;52.870;9.578;2022-08-23T13:11:07;100790.38;;;35.41;35.63
3544;BME280;1786;52.870;9.578;2022-08-23T13:13:38;100784.84;;;35.14;35.82
3544;BME280;1786;52.870;9.578;2022-08-23T13:16:26;100788.34;;;35.31;34.95
3544;BME280;1786;52.870;9.578;2022-08-23T13:19:08;100787.06;;;35.17;33.53
3544;BME280;1786;52.870;9.578;2022-08-23T13:21:35;100786.88;;;35.46;35.19
3544;BME280;1786;52.870;9.578;2022-08-23T13:32:38;100782.97;;;35.42;34.94
3544;BME280;1786;52.870;9.578;2022-08-23T13:41:00;100778.44;;;35.58;36.09
3544;BME280;1786;52.870;9.578;2022-08-23T13:43:44;100782.63;;;35.87;35.79
3544;BME280;1786;52.870;9.578;2022-08-23T13:46:18;100775.78;;;35.90;35.75
3544;BME280;1786;52.870;9.578;2022-08-23T13:48:53;100782.38;;;35.89;35.57
3544;BME280;1786;52.870;9.578;2022-08-23T13:51:35;100766.50;;;36.01;35.76
3544;BME280;1786;52.870;9.578;2022-08-23T13:54:10;100778.38;;;35.74;35.57
3544;BME280;1786;52.870;9.578;2022-08-23T13:56:48;100779.44;;;36.01;35.95
3544;BME280;1786;52.870;9.578;2022-08-23T14:02:06;100765.38;;;36.24;35.01
3544;BME280;1786;52.870;9.578;2022-08-23T14:04:33;100767.84;;;35.66;35.45
3544;BME280;1786;52.870;9.578;2022-08-23T14:07:00;100768.53;;;35.79;35.51
3544;BME280;1786;52.870;9.578;2022-08-23T14:09:27;100767.44;;;35.58;35.70
3544;BME280;1786;52.870;9.578;2022-08-23T14:11:57;100774.47;;;35.70;35.02
3544;BME280;1786;52.870;9.578;2022-08-23T14:14:25;100773.53;;;35.10;35.96
3544;BME280;1786;52.870;9.578;2022-08-23T14:16:53;100765.84;;;35.13;35.89
3544;BME280;1786;52.870;9.578;2022-08-23T14:19:26;100769.53;;;35.01;35.69
3544;BME280;1786;52.870;9.578;2022-08-23T14:22:13;100769.34;;;35.08;35.97
3544;BME280;1786;52.870;9.578;2022-08-23T14:24:42;100767.75;;;35.34;35.64
3544;BME280;1786;52.870;9.578;2022-08-23T14:27:11;100771.31;;;35.57;35.22
3544;BME280;1786;52.870;9.578;2022-08-23T14:29:37;100779.47;;;35.73;34.45
3544;BME280;1786;52.870;9.578;2022-08-23T14:32:04;100777.88;;;35.28;34.75
3544;BME280;1786;52.870;9.578;2022-08-23T14:34:31;100771.53;;;35.06;35.53
3544;BME280;1786;52.870;9.578;2022-08-23T14:36:58;100768.25;;;34.87;35.44
3544;BME280;1786;52.870;9.578;2022-08-23T14:39:44;100761.00;;;35.20;35.11
3544;BME280;1786;52.870;9.578;2022-08-23T14:42:12;100765.97;;;35.23;35.51
3544;BME280;1786;52.870;9.578;2022-08-23T14:44:41;100756.13;;;35.27;35.30
3544;BME280;1786;52.870;9.578;2022-08-23T14:47:09;100756.19;;;35.10;36.11
3544;BME280;1786;52.870;9.578;2022-08-23T14:49:35;100762.34;;;35.17;35.40
3544;BME280;1786;52.870;9.578;2022-08-23T14:52:02;100758.75;;;35.17;35.14
3544;BME280;1786;52.870;9.578;2022-08-23T14:54:29;100748.78;;;35.87;35.53
3544;BME280;1786;52.870;9.578;2022-08-23T14:56:56;100756.03;;;35.98;34.47
3544;BME280;1786;52.870;9.578;2022-08-23T14:59:23;100755.53;;;35.47;34.25
3544;BME280;1786;52.870;9.578;2022-08-23T15:01:51;100756.56;;;35.41;34.66
3544;BME280;1786;52.870;9.578;2022-08-23T15:04:21;100755.34;;;35.53;34.45
3544;BME280;1786;52.870;9.578;2022-08-23T15:06:49;100753.25;;;35.39;35.29